createdAt,value
2022-08-27T00:02:25.596Z,21.58
2022-08-27T00:05:54.587Z,21.59
2022-08-27T00:09:26.796Z,21.58
2022-08-27T00:12:57.074Z,21.57
2022-08-27T00:16:25.092Z,21.55
2022-08-27T00:20:00.499Z,21.53
2022-08-27T00:23:28.051Z,21.50
2022-08-27T00:26:56.775Z,21.48
2022-08-27T00:30:25.458Z,21.46
2022-08-27T00:33:55.376Z,21.44
2022-08-27T00:37:22.602Z,21.41
2022-08-27T00:40:50.250Z,21.38
2022-08-27T00:44:17.864Z,21.37
2022-08-27T00:47:48.621Z,21.34
2022-08-27T00:51:16.154Z,21.32
2022-08-27T00:54:43.137Z,21.31
2022-08-27T00:58:21.553Z,21.31
2022-08-27T01:02:07.670Z,21.31
2022-08-27T01:05:38.577Z,21.30
2022-08-27T01:09:15.028Z,21.30
2022-08-27T01:12:43.995Z,21.30
2022-08-27T01:16:12.302Z,21.29
2022-08-27T01:19:43.850Z,21.29
2022-08-27T01:23:19.363Z,21.29
2022-08-27T01:26:46.587Z,21.28
2022-08-27T01:30:18.455Z,21.28
2022-08-27T01:34:00.187Z,21.27
2022-08-27T01:37:28.946Z,21.27
2022-08-27T01:40:59.374Z,21.26
2022-08-27T01:44:27.318Z,21.24
2022-08-27T01:52:47.242Z,21.22
2022-08-27T01:56:15.672Z,21.22
2022-08-27T01:59:43.284Z,21.22
2022-08-27T02:03:12.502Z,21.22
2022-08-27T02:06:40.373Z,21.24
2022-08-27T02:10:10.596Z,21.25
2022-08-27T02:13:39.533Z,21.26
2022-08-27T02:17:06.575Z,21.27
2022-08-27T02:20:35.022Z,21.26
2022-08-27T02:24:02.485Z,21.25
2022-08-27T02:27:29.837Z,21.22
2022-08-27T02:30:57.553Z,21.17
2022-08-27T02:34:25.048Z,21.13
2022-08-27T02:37:52.425Z,21.05
2022-08-27T02:41:19.932Z,20.99
2022-08-27T02:44:47.635Z,20.93
2022-08-27T02:48:15.135Z,20.89
2022-08-27T02:51:45.086Z,20.83
2022-08-27T02:55:13.844Z,20.77
2022-08-27T02:58:42.421Z,20.71
2022-08-27T03:02:16.299Z,20.66
2022-08-27T03:05:43.736Z,20.62
2022-08-27T03:09:11.390Z,20.58
2022-08-27T03:12:38.439Z,20.53
2022-08-27T03:16:05.728Z,20.49
2022-08-27T03:19:33.007Z,20.46
2022-08-27T03:23:00.293Z,20.46
2022-08-27T03:26:28.585Z,20.46
2022-08-27T03:29:56.601Z,20.47
2022-08-27T03:33:26.583Z,20.48
2022-08-27T03:36:53.676Z,20.49
2022-08-27T03:40:21.312Z,20.52
2022-08-27T03:43:48.983Z,20.54
2022-08-27T03:47:16.957Z,20.54
2022-08-27T03:50:48.254Z,20.54
2022-08-27T03:54:15.480Z,20.52
2022-08-27T03:57:42.824Z,20.50
2022-08-27T04:01:12.515Z,20.47
2022-08-27T04:04:40.360Z,20.45
2022-08-27T04:08:08.585Z,20.42
2022-08-27T04:11:36.952Z,20.40
2022-08-27T04:15:07.562Z,20.39
2022-08-27T04:18:37.524Z,20.38
2022-08-27T04:22:06.537Z,20.37
2022-08-27T04:25:33.786Z,20.36
2022-08-27T04:29:01.094Z,20.36
2022-08-27T04:32:30.073Z,20.36
2022-08-27T04:36:03.559Z,20.37
2022-08-27T04:39:31.714Z,20.40
2022-08-27T04:42:58.859Z,20.43
2022-08-27T04:46:29.259Z,20.48
2022-08-27T04:49:56.586Z,20.55
2022-08-27T04:53:25.016Z,20.63
2022-08-27T04:56:52.711Z,20.70
2022-08-27T05:00:21.133Z,20.78
2022-08-27T05:03:48.317Z,20.85
2022-08-27T05:07:15.205Z,20.91
2022-08-27T05:10:48.619Z,20.95
2022-08-27T05:14:17.812Z,20.98
2022-08-27T05:17:44.499Z,21.01
2022-08-27T05:21:17.242Z,21.05
2022-08-27T05:24:50.212Z,21.11
2022-08-27T05:28:21.908Z,21.16
2022-08-27T05:31:55.254Z,21.22
2022-08-27T05:35:22.409Z,21.28
2022-08-27T05:38:50.697Z,21.34
2022-08-27T05:42:18.283Z,21.41
2022-08-27T05:45:47.289Z,21.48
2022-08-27T05:49:14.982Z,21.53
2022-08-27T05:52:44.125Z,21.60
2022-08-27T05:56:15.754Z,21.65
2022-08-27T06:00:00.593Z,21.72
2022-08-27T06:03:28.469Z,21.78
2022-08-27T06:06:56.817Z,21.86
2022-08-27T06:10:24.066Z,21.92
2022-08-27T06:13:52.647Z,22.00
2022-08-27T06:17:20.604Z,22.07
2022-08-27T06:20:48.081Z,22.13
2022-08-27T06:24:16.213Z,22.20
2022-08-27T06:27:43.356Z,22.28
2022-08-27T06:31:13.050Z,22.34
2022-08-27T06:34:44.071Z,22.43
2022-08-27T06:38:12.199Z,22.51
2022-08-27T06:41:39.645Z,22.60
2022-08-27T06:45:12.906Z,22.70
2022-08-27T06:48:40.920Z,22.79
2022-08-27T06:52:08.478Z,22.90
2022-08-27T06:55:42.273Z,23.01
2022-08-27T06:59:11.727Z,23.14
2022-08-27T07:02:39.438Z,23.28
2022-08-27T07:06:09.891Z,23.37
2022-08-27T07:09:37.435Z,23.53
2022-08-27T07:13:05.020Z,23.66
2022-08-27T07:16:32.532Z,23.77
2022-08-27T07:20:00.298Z,23.88
2022-08-27T07:23:27.495Z,23.95
2022-08-27T07:26:54.802Z,24.08
2022-08-27T07:30:21.933Z,24.17
2022-08-27T07:33:52.289Z,24.26
2022-08-27T07:37:22.470Z,24.35
2022-08-27T07:40:52.638Z,24.44
2022-08-27T07:44:33.076Z,24.56
2022-08-27T07:48:01.922Z,24.68
2022-08-27T07:51:32.810Z,24.78
2022-08-27T07:55:00.814Z,24.89
2022-08-27T07:58:27.936Z,24.98
2022-08-27T08:01:55.265Z,25.09
2022-08-27T08:05:22.909Z,25.22
2022-08-27T08:08:52.512Z,25.33
2022-08-27T08:12:22.070Z,25.44
2022-08-27T08:15:54.367Z,25.57
2022-08-27T08:19:22.465Z,25.66
2022-08-27T08:22:52.901Z,25.74
2022-08-27T08:26:20.244Z,25.84
2022-08-27T08:29:48.700Z,25.95
2022-08-27T08:33:17.137Z,26.06
2022-08-27T08:36:46.284Z,26.17
2022-08-27T08:40:32.398Z,26.29
2022-08-27T08:44:05.350Z,26.43
2022-08-27T08:47:42.856Z,26.57
2022-08-27T08:51:17.725Z,26.69
2022-08-27T08:54:45.931Z,26.83
2022-08-27T08:58:35.104Z,26.97
2022-08-27T09:02:04.458Z,27.12
2022-08-27T09:05:34.700Z,27.26
2022-08-27T09:09:08.173Z,27.39
2022-08-27T09:12:35.713Z,27.53
2022-08-27T09:16:08.033Z,27.66
2022-08-27T09:19:35.943Z,27.79
2022-08-27T09:23:15.637Z,27.90
2022-08-27T09:26:45.609Z,28.04
2022-08-27T09:30:21.137Z,28.16
2022-08-27T09:33:55.942Z,28.31
2022-08-27T09:37:34.695Z,28.44
2022-08-27T09:41:17.456Z,28.58
2022-08-27T09:44:53.718Z,28.73
2022-08-27T09:48:24.298Z,28.86
2022-08-27T09:51:52.523Z,28.97
2022-08-27T09:55:32.474Z,29.10
2022-08-27T09:59:06.039Z,29.23
2022-08-27T10:02:33.826Z,29.34
2022-08-27T10:06:03.718Z,29.45
2022-08-27T10:09:38.725Z,29.57
2022-08-27T10:13:10.684Z,29.72
2022-08-27T10:16:53.088Z,29.85
2022-08-27T10:20:29.632Z,30.02
2022-08-27T10:24:14.940Z,30.12
2022-08-27T10:27:53.033Z,30.21
2022-08-27T10:31:33.051Z,30.35
2022-08-27T10:35:11.816Z,30.35
2022-08-27T10:38:45.214Z,30.38
2022-08-27T10:42:23.174Z,30.24
2022-08-27T10:46:00.235Z,30.26
2022-08-27T10:49:39.263Z,30.43
2022-08-27T10:53:14.428Z,30.62
2022-08-27T10:56:54.263Z,30.83
2022-08-27T11:00:41.523Z,30.90
2022-08-27T11:04:12.128Z,30.84
2022-08-27T11:07:44.053Z,30.86
2022-08-27T11:15:13.166Z,31.06
2022-08-27T11:18:46.537Z,31.08
2022-08-27T11:22:26.084Z,31.23
2022-08-27T11:25:58.325Z,31.43
2022-08-27T11:29:33.815Z,31.63
2022-08-27T11:33:13.878Z,31.82
2022-08-27T11:37:03.477Z,31.98
2022-08-27T11:40:44.117Z,32.16
2022-08-27T11:44:17.846Z,32.31
2022-08-27T11:47:55.415Z,32.43
2022-08-27T11:51:35.374Z,32.51
2022-08-27T11:55:27.728Z,32.64
2022-08-27T11:58:53.938Z,32.82
2022-08-27T12:02:26.368Z,32.96
2022-08-27T12:06:18.975Z,33.04
2022-08-27T12:09:59.358Z,33.18
2022-08-27T12:13:36.362Z,33.38
2022-08-27T12:17:13.108Z,33.54
2022-08-27T12:20:51.875Z,33.69
2022-08-27T12:24:41.499Z,33.83
2022-08-27T12:28:10.976Z,34.04
2022-08-27T12:31:41.480Z,34.16
2022-08-27T12:35:15.098Z,34.30
2022-08-27T12:38:51.126Z,34.46
2022-08-27T12:42:24.270Z,34.61
2022-08-27T12:45:59.175Z,34.81
2022-08-27T12:49:46.203Z,35.07
2022-08-27T12:53:26.897Z,35.25
2022-08-27T12:57:09.516Z,35.35
2022-08-27T13:00:38.955Z,35.34
2022-08-27T13:04:08.462Z,35.32
2022-08-27T13:07:44.311Z,35.44
2022-08-27T13:11:19.587Z,35.61
2022-08-27T13:14:48.960Z,35.75
2022-08-27T13:18:30.104Z,35.91
2022-08-27T13:26:33.453Z,36.09
2022-08-27T13:30:35.685Z,36.13
2022-08-27T13:34:44.105Z,36.22
2022-08-27T13:38:27.430Z,36.32
2022-08-27T13:41:57.050Z,36.40
2022-08-27T13:45:27.676Z,36.45
2022-08-27T13:49:00.540Z,36.57
2022-08-27T13:52:34.413Z,36.72
2022-08-27T13:56:05.606Z,36.80
2022-08-27T13:59:39.032Z,36.88
2022-08-27T14:03:28.315Z,36.94
2022-08-27T14:06:56.492Z,37.00
2022-08-27T14:10:38.328Z,36.96
2022-08-27T14:14:12.936Z,36.95
2022-08-27T14:17:41.110Z,36.93
2022-08-27T14:21:08.491Z,36.95
2022-08-27T14:24:35.606Z,36.63
2022-08-27T14:28:03.286Z,36.18
2022-08-27T14:31:32.098Z,35.70
2022-08-27T14:35:00.692Z,35.26
2022-08-27T14:38:33.310Z,34.98
2022-08-27T14:42:00.708Z,35.04
2022-08-27T14:45:28.595Z,35.14
2022-08-27T14:48:58.132Z,35.27
2022-08-27T14:52:25.849Z,35.22
2022-08-27T14:55:53.157Z,34.96
2022-08-27T14:59:20.872Z,34.66
2022-08-27T15:02:49.772Z,34.36
2022-08-27T15:06:20.212Z,34.14
2022-08-27T15:09:55.719Z,33.94
2022-08-27T15:13:26.011Z,33.74
2022-08-27T15:16:57.258Z,33.55
2022-08-27T15:20:25.698Z,33.36
2022-08-27T15:24:02.140Z,33.16
2022-08-27T15:27:38.397Z,32.99
2022-08-27T15:31:06.748Z,32.82
2022-08-27T15:34:35.687Z,32.69
2022-08-27T15:38:03.481Z,32.56
2022-08-27T15:41:34.071Z,32.41
2022-08-27T15:45:03.930Z,32.29
2022-08-27T15:48:33.356Z,32.13
2022-08-27T15:52:01.531Z,32.02
2022-08-27T15:55:31.588Z,31.88
2022-08-27T15:59:01.049Z,31.77
2022-08-27T16:02:30.937Z,31.65
2022-08-27T16:05:59.557Z,31.52
2022-08-27T16:09:29.828Z,31.38
2022-08-27T16:12:58.237Z,31.22
2022-08-27T16:16:31.185Z,31.10
2022-08-27T16:19:59.818Z,30.97
2022-08-27T16:23:28.808Z,30.85
2022-08-27T16:27:01.247Z,30.73
2022-08-27T16:30:29.781Z,30.61
2022-08-27T16:34:01.133Z,30.48
2022-08-27T16:37:28.954Z,30.34
2022-08-27T16:41:02.068Z,30.23
2022-08-27T16:44:32.400Z,30.12
2022-08-27T16:48:19.351Z,29.99
2022-08-27T16:51:48.899Z,29.87
2022-08-27T16:55:15.507Z,29.76
2022-08-27T16:58:42.989Z,29.65
2022-08-27T17:02:16.144Z,29.54
2022-08-27T17:05:43.086Z,29.41
2022-08-27T17:09:10.588Z,29.28
2022-08-27T17:12:39.360Z,29.15
2022-08-27T17:16:07.304Z,29.00
2022-08-27T17:19:37.406Z,28.85
2022-08-27T17:23:05.420Z,28.70
2022-08-27T17:26:35.206Z,28.56
2022-08-27T17:30:02.259Z,28.45
2022-08-27T17:33:33.490Z,28.33
2022-08-27T17:37:08.553Z,28.18
2022-08-27T17:40:38.661Z,28.07
2022-08-27T17:44:11.977Z,27.94
2022-08-27T17:47:40.535Z,27.82
2022-08-27T17:51:11.579Z,27.69
2022-08-27T17:54:42.469Z,27.55
2022-08-27T18:02:10.633Z,27.23
2022-08-27T18:05:48.688Z,27.08
2022-08-27T18:09:24.823Z,26.96
2022-08-27T18:12:53.400Z,26.82
2022-08-27T18:16:30.717Z,26.69
2022-08-27T18:20:06.102Z,26.57
2022-08-27T18:23:35.475Z,26.46
2022-08-27T18:27:07.896Z,26.33
2022-08-27T18:30:35.740Z,26.20
2022-08-27T18:34:05.118Z,26.09
2022-08-27T18:37:39.993Z,25.98
2022-08-27T18:41:13.492Z,25.88
2022-08-27T18:44:53.365Z,25.76
2022-08-27T18:48:29.516Z,25.66
2022-08-27T18:52:05.206Z,25.56
2022-08-27T18:55:38.495Z,25.47
2022-08-27T18:59:25.885Z,25.38
2022-08-27T19:02:54.824Z,25.26
2022-08-27T19:06:23.556Z,25.17
2022-08-27T19:09:53.497Z,25.06
2022-08-27T19:13:23.962Z,24.96
2022-08-27T19:16:56.555Z,24.86
2022-08-27T19:20:27.900Z,24.77
2022-08-27T19:23:57.151Z,24.66
2022-08-27T19:27:38.959Z,24.58
2022-08-27T19:31:08.852Z,24.48
2022-08-27T19:34:43.231Z,24.41
2022-08-27T19:38:17.895Z,24.33
2022-08-27T19:41:47.224Z,24.23
2022-08-27T19:45:24.428Z,24.12
2022-08-27T19:48:56.232Z,24.02
2022-08-27T19:52:31.901Z,23.94
2022-08-27T19:56:01.546Z,23.84
2022-08-27T19:59:36.584Z,23.72
2022-08-27T20:03:11.070Z,23.61
2022-08-27T20:06:39.175Z,23.53
2022-08-27T20:10:09.280Z,23.43
2022-08-27T20:13:38.023Z,23.31
2022-08-27T20:17:17.965Z,23.18
2022-08-27T20:20:45.675Z,23.09
2022-08-27T20:24:16.047Z,23.00
2022-08-27T20:27:43.603Z,22.93
2022-08-27T20:31:11.934Z,22.88
2022-08-27T20:34:49.574Z,22.83
2022-08-27T20:38:20.668Z,22.77
2022-08-27T20:41:51.913Z,22.72
2022-08-27T20:45:19.889Z,22.67
2022-08-27T20:48:50.222Z,22.60
2022-08-27T20:52:19.526Z,22.54
2022-08-27T20:55:49.719Z,22.45
2022-08-27T20:59:36.642Z,22.36
2022-08-27T21:03:06.475Z,22.27
2022-08-27T21:06:33.857Z,22.21
2022-08-27T21:10:01.567Z,22.13
2022-08-27T21:13:51.147Z,22.05
2022-08-27T21:17:24.609Z,21.99
2022-08-27T21:20:57.795Z,21.94
2022-08-27T21:24:29.171Z,21.89
2022-08-27T21:28:01.366Z,21.83
2022-08-27T21:31:34.388Z,21.77
2022-08-27T21:35:03.832Z,21.71
2022-08-27T21:38:31.322Z,21.66
2022-08-27T21:42:01.814Z,21.61
2022-08-27T21:45:29.106Z,21.55
2022-08-27T21:48:59.099Z,21.52
2022-08-27T21:52:29.028Z,21.48
2022-08-27T21:55:59.465Z,21.46
2022-08-27T21:59:26.990Z,21.42
2022-08-27T22:02:57.430Z,21.36
2022-08-27T22:06:26.011Z,21.34
2022-08-27T22:09:56.436Z,21.33
2022-08-27T22:13:24.680Z,21.33
2022-08-27T22:16:52.037Z,21.32
2022-08-27T22:20:19.871Z,21.29
2022-08-27T22:23:47.537Z,21.25
2022-08-27T22:27:15.249Z,21.20
2022-08-27T22:30:43.174Z,21.12
2022-08-27T22:34:14.975Z,21.04
2022-08-27T22:37:43.229Z,20.97
2022-08-27T22:41:12.736Z,20.89
2022-08-27T22:44:42.817Z,20.85
2022-08-27T22:48:09.769Z,20.81
2022-08-27T22:51:51.338Z,20.75
2022-08-27T22:55:22.583Z,20.69
2022-08-27T22:58:50.393Z,20.65
2022-08-27T23:02:18.152Z,20.59
2022-08-27T23:05:45.795Z,20.52
2022-08-27T23:09:13.877Z,20.46
2022-08-27T23:12:40.550Z,20.43
2022-08-27T23:16:14.139Z,20.42
2022-08-27T23:19:43.873Z,20.41
2022-08-27T23:23:13.799Z,20.42
2022-08-27T23:26:58.368Z,20.41
2022-08-27T23:30:26.710Z,20.43
2022-08-27T23:33:56.200Z,20.44
2022-08-27T23:37:25.413Z,20.39
2022-08-27T23:40:53.717Z,20.34
2022-08-27T23:44:20.753Z,20.30
2022-08-27T23:47:48.552Z,20.23
2022-08-27T23:51:15.330Z,20.19
2022-08-27T23:54:42.328Z,20.16
2022-08-27T23:58:10.312Z,20.10
